Time;durP1;ratioP1;P1;durP2;ratioP2;P2;SDS_P1;SDS_P2;PMS_P1;PMS_P2;Temp;Humidity;BMP_temperature;BMP_pressure;BME280_temperature;BME280_humidity;BME280_pressure;Samples;Min_cycle;Max_cycle;Signal;HPM_P1;HPM_P2
2021/12/14 06:20:43;;;;;;;33.17;18.50;;;;;;;-2.23;99.30;98895.70;1845449;76;26816;-64
2021/12/14 06:23:13;;;;;;;23.70;15.23;;;;;;;-2.26;99.26;98893.48;1816528;78;20861;-63
2021/12/14 06:25:47;;;;;;;19.98;13.22;;;;;;;-2.23;99.22;98900.95;1807763;78;21843;-66
2021/12/14 06:28:22;;;;;;;15.08;10.23;;;;;;;-2.18;99.22;98903.84;1817326;78;20849;-63
2021/12/14 06:30:49;;;;;;;14.47;10.10;;;;;;;-2.14;99.19;98908.52;1811311;78;20884;-65
2021/12/14 06:33:15;;;;;;;16.93;10.78;;;;;;;-2.05;99.28;98917.59;1816699;78;21355;-63
2021/12/14 06:35:47;;;;;;;14.28;10.30;;;;;;;-1.92;98.96;98909.83;1812266;78;20967;-63
2021/12/14 06:38:31;;;;;;;15.72;10.58;;;;;;;-1.83;98.76;98912.64;1785842;78;21108;-65
2021/12/14 06:41:09;;;;;;;12.55;9.38;;;;;;;-1.75;98.57;98922.53;1813392;78;20935;-62
2021/12/14 06:43:52;;;;;;;13.95;10.00;;;;;;;-1.69;98.44;98920.44;1814420;78;20885;-63
2021/12/14 06:46:25;;;;;;;13.75;10.08;;;;;;;-1.65;98.30;98919.05;1820965;78;21422;-65
2021/12/14 06:48:57;;;;;;;14.40;9.58;;;;;;;-1.62;97.94;98910.80;1821248;78;20895;-63
2021/12/14 06:51:41;;;;;;;17.60;10.13;;;;;;;-1.59;97.73;98922.25;1821377;78;21084;-62
2021/12/14 06:54:17;;;;;;;17.57;10.98;;;;;;;-1.59;97.62;98923.56;1820509;78;20888;-64
2021/12/14 06:57:04;;;;;;;16.05;10.82;;;;;;;-1.60;97.44;98923.23;1821219;78;21344;-60
2021/12/14 06:59:49;;;;;;;16.45;10.60;;;;;;;-1.56;97.25;98923.19;1821032;78;20998;-62
2021/12/14 07:02:22;;;;;;;14.83;10.72;;;;;;;-1.54;97.08;98934.32;1820659;78;20865;-62
2021/12/14 07:04:56;;;;;;;17.62;11.40;;;;;;;-1.52;96.97;98941.51;1820360;78;21128;-66
2021/12/14 07:07:25;;;;;;;14.95;10.23;;;;;;;-1.48;96.96;98940.61;1820981;78;20872;-65
2021/12/14 07:09:57;;;;;;;17.15;11.03;;;;;;;-1.47;96.85;98947.50;1821141;78;20919;-64
2021/12/14 07:12:28;;;;;;;16.12;10.70;;;;;;;-1.46;96.79;98943.89;1821356;78;20908;-65
2021/12/14 07:15:24;;;;;;;18.02;11.33;;;;;;;-1.43;96.55;98944.80;1821655;78;21068;-60
2021/12/14 07:18:01;;;;;;;17.30;11.17;;;;;;;-1.41;96.39;98943.60;1821734;78;21431;-60
2021/12/14 07:20:41;;;;;;;18.87;12.37;;;;;;;-1.42;96.24;98946.44;1816121;78;20873;-64
2021/12/14 07:26:06;;;;;;;17.42;11.75;;;;;;;-1.45;96.15;98943.69;1816191;79;21014;-60
2021/12/14 07:28:42;;;;;;;20.12;12.18;;;;;;;-1.46;96.16;98947.30;1815751;79;20904;-59
2021/12/14 07:31:20;;;;;;;17.65;12.25;;;;;;;-1.46;96.19;98944.67;1815846;79;21482;-59
2021/12/14 07:33:56;;;;;;;19.02;12.25;;;;;;;-1.44;96.27;98942.66;1815208;79;20923;-60
2021/12/14 07:36:26;;;;;;;18.10;11.43;;;;;;;-1.39;96.23;98955.27;1815443;79;20884;-57
2021/12/14 07:39:01;;;;;;;17.48;11.97;;;;;;;-1.31;96.19;98954.28;1794405;79;21424;-63
2021/12/14 07:41:31;;;;;;;21.20;14.07;;;;;;;-1.29;96.13;98954.41;1782255;80;20990;-61
2021/12/14 07:44:06;;;;;;;20.40;13.88;;;;;;;-1.27;96.07;98960.28;1808580;79;21046;-58
2021/12/14 07:46:47;;;;;;;19.17;12.50;;;;;;;-1.30;96.03;98965.13;1815502;79;21354;-59
2021/12/14 07:49:33;;;;;;;21.68;13.68;;;;;;;-1.29;96.08;98975.92;1812135;79;21482;-60
2021/12/14 07:52:15;;;;;;;21.75;13.95;;;;;;;-1.30;95.98;98970.38;1812342;79;20908;-59
2021/12/14 07:54:55;;;;;;;22.52;12.82;;;;;;;-1.35;96.02;98970.95;1808882;79;21530;-60
2021/12/14 07:57:27;;;;;;;21.90;13.68;;;;;;;-1.37;96.13;98970.33;1815363;79;21549;-65
2021/12/14 08:00:20;;;;;;;23.47;13.70;;;;;;;-1.33;96.23;98976.00;1796730;78;20860;-61
2021/12/14 08:02:56;;;;;;;21.33;13.70;;;;;;;-1.30;96.20;98979.58;1792423;79;20905;-61
2021/12/14 08:05:31;;;;;;;21.37;13.90;;;;;;;-1.30;96.10;98983.02;1795242;79;20973;-62
2021/12/14 08:08:06;;;;;;;21.87;12.35;;;;;;;-1.28;96.21;98986.77;1794172;79;20973;-58
2021/12/14 08:10:37;;;;;;;21.17;14.33;;;;;;;-1.25;96.09;98985.08;1814751;79;23229;-60
2021/12/14 08:13:11;;;;;;;22.95;14.45;;;;;;;-1.26;96.12;98980.31;1815528;78;20900;-63
2021/12/14 08:15:49;;;;;;;22.07;13.32;;;;;;;-1.25;96.10;98983.77;1815090;79;20916;-65
2021/12/14 08:18:29;;;;;;;20.52;12.70;;;;;;;-1.25;96.03;98982.45;1814549;79;20931;-67
2021/12/14 08:21:01;;;;;;;22.87;13.32;;;;;;;-1.26;96.04;98978.19;1816893;79;20974;-61
2021/12/14 08:23:35;;;;;;;22.77;13.88;;;;;;;-1.24;96.16;98980.11;1791742;78;21105;-60
2021/12/14 08:26:09;;;;;;;21.45;13.62;;;;;;;-1.17;96.20;98979.16;1787223;79;21352;-65
2021/12/14 08:29:04;;;;;;;20.37;13.22;;;;;;;-1.07;96.11;98977.52;1779707;80;20908;-60
2021/12/14 08:31:41;;;;;;;20.35;12.40;;;;;;;-1.06;95.98;98979.16;1807746;78;20971;-63
2021/12/14 08:34:12;;;;;;;21.82;13.68;;;;;;;-0.99;96.01;98978.16;1813290;79;21014;-63
2021/12/14 08:36:55;;;;;;;21.12;13.90;;;;;;;-0.97;95.86;98973.55;1815236;79;21089;-56
2021/12/14 08:39:31;;;;;;;20.25;13.35;;;;;;;-0.96;95.80;98975.66;1796450;79;20937;-65
2021/12/14 08:42:14;;;;;;;21.65;13.98;;;;;;;-0.94;95.77;98973.64;1811074;79;20931;-62
2021/12/14 08:44:50;;;;;;;22.77;13.85;;;;;;;-0.93;95.66;98971.33;1809777;79;20928;-60
2021/12/14 08:47:14;;;;;;;21.75;13.20;;;;;;;-0.95;95.63;98966.77;1812167;79;20821;-61
2021/12/14 08:49:42;;;;;;;22.25;13.10;;;;;;;-0.92;95.70;98965.08;1810971;78;21101;-59
2021/12/14 08:52:08;;;;;;;21.50;13.45;;;;;;;-0.87;95.51;98962.66;1804897;78;21027;-61
2021/12/14 08:54:35;;;;;;;21.45;14.00;;;;;;;-0.88;95.37;98957.11;1808929;79;20963;-62
2021/12/14 08:57:13;;;;;;;22.27;14.00;;;;;;;-0.88;95.33;98958.42;1810288;79;20967;-58
2021/12/14 08:59:44;;;;;;;20.25;12.80;;;;;;;-0.88;95.36;98958.42;1805831;79;20892;-64
2021/12/14 09:02:12;;;;;;;21.02;13.18;;;;;;;-0.86;95.22;98951.96;1808214;79;21037;-64
2021/12/14 09:04:54;;;;;;;22.93;13.90;;;;;;;-0.83;94.94;98945.50;1804092;79;20951;-65
2021/12/14 09:07:26;;;;;;;21.17;14.07;;;;;;;-0.84;95.01;98941.23;1799728;78;21048;-63
2021/12/14 09:09:53;;;;;;;21.07;13.88;;;;;;;-0.81;95.09;98940.85;1807706;78;20959;-68
2021/12/14 09:12:31;;;;;;;20.70;13.78;;;;;;;-0.78;95.08;98934.69;1799360;79;20971;-58
2021/12/14 09:15:05;;;;;;;16.70;11.73;;;;;;;-0.73;95.03;98926.23;1802789;79;21080;-67
2021/12/14 09:17:32;;;;;;;20.30;12.85;;;;;;;-0.76;94.77;98925.30;1794860;78;21019;-71
2021/12/14 09:20:04;;;;;;;22.52;14.40;;;;;;;-0.81;94.77;98917.18;1810011;78;21086;-65
2021/12/14 09:22:34;;;;;;;23.12;12.80;;;;;;;-0.80;94.78;98918.81;1807016;78;21039;-62
2021/12/14 09:25:01;;;;;;;20.92;12.60;;;;;;;-0.80;94.76;98911.72;1813113;78;20888;-64
2021/12/14 09:27:30;;;;;;;23.90;14.25;;;;;;;-0.79;94.69;98917.80;1808180;79;21047;-62
2021/12/14 09:29:57;;;;;;;19.30;13.28;;;;;;;-0.80;94.73;98913.03;1806655;79;20971;-66
2021/12/14 09:32:27;;;;;;;21.65;12.90;;;;;;;-0.79;94.72;98915.16;1810152;79;20966;-64
2021/12/14 09:34:55;;;;;;;20.90;13.15;;;;;;;-0.80;94.67;98924.08;1811354;78;20903;-62
2021/12/14 09:37:23;;;;;;;22.75;14.07;;;;;;;-0.82;94.62;98915.55;1810463;78;21439;-65
2021/12/14 09:39:55;;;;;;;19.30;12.28;;;;;;;-0.83;94.75;98908.18;1808698;79;21783;-68
2021/12/14 09:42:32;;;;;;;21.23;13.22;;;;;;;-0.80;94.79;98906.98;1807428;79;20940;-65
2021/12/14 09:45:02;;;;;;;21.05;13.60;;;;;;;-0.70;94.85;98915.30;1807870;79;20991;-64
2021/12/14 09:47:31;;;;;;;20.68;13.55;;;;;;;-0.65;94.75;98903.69;1801751;79;20940;-61
2021/12/14 09:50:01;;;;;;;20.62;14.03;;;;;;;-0.59;94.64;98913.44;1807398;79;21007;-60
2021/12/14 09:52:31;;;;;;;22.82;14.28;;;;;;;-0.56;94.46;98913.52;1802304;78;21268;-61
2021/12/14 09:54:58;;;;;;;21.48;13.62;;;;;;;-0.56;94.32;98913.03;1811104;78;21329;-60
2021/12/14 09:57:32;;;;;;;23.02;14.65;;;;;;;-0.58;94.26;98915.55;1801660;79;21683;-60
2021/12/14 10:00:02;;;;;;;22.80;14.05;;;;;;;-0.61;94.26;98918.06;1812472;79;20873;-65
2021/12/14 10:02:36;;;;;;;21.95;14.38;;;;;;;-0.61;94.29;98918.59;1807653;79;22054;-61
2021/12/14 10:05:16;;;;;;;22.20;13.95;;;;;;;-0.63;94.23;98921.41;1807770;78;21100;-64
2021/12/14 10:07:44;;;;;;;23.67;14.40;;;;;;;-0.62;94.29;98919.09;1812323;79;20970;-61
2021/12/14 10:10:13;;;;;;;23.20;14.15;;;;;;;-0.59;94.41;98920.02;1806072;79;20998;-67
2021/12/14 10:12:49;;;;;;;24.10;15.78;;;;;;;-0.53;94.34;98923.17;1808717;79;21491;-60
2021/12/14 10:15:24;;;;;;;23.50;15.95;;;;;;;-0.51;94.27;98915.06;1807607;79;21434;-63
2021/12/14 10:17:54;;;;;;;24.47;15.25;;;;;;;-0.44;94.35;98912.77;1809965;79;21942;-59
2021/12/14 10:20:29;;;;;;;24.98;15.35;;;;;;;-0.34;94.17;98904.50;1809982;78;20987;-61
2021/12/14 10:22:58;;;;;;;31.62;15.55;;;;;;;-0.30;94.07;98909.66;1802053;79;21021;-66
2021/12/14 10:25:26;;;;;;;27.35;15.60;;;;;;;-0.32;93.63;98913.82;1751120;80;20991;-59
2021/12/14 10:27:53;;;;;;;24.27;15.10;;;;;;;-0.38;93.55;98917.77;1816243;78;21039;-58
2021/12/14 10:30:35;;;;;;;22.98;14.60;;;;;;;-0.43;93.52;98912.27;1814307;78;21120;-61
2021/12/14 10:33:02;;;;;;;23.67;15.15;;;;;;;-0.51;93.52;98909.30;1795102;79;20976;-68
2021/12/14 10:35:37;;;;;;;28.02;14.95;;;;;;;-0.55;93.69;98912.53;1781652;80;21011;-65
2021/12/14 10:38:14;;;;;;;24.12;14.98;;;;;;;-0.53;93.75;98909.19;1782420;80;21364;-60
2021/12/14 10:43:23;;;;;;;23.10;14.98;;;;;;;-0.64;93.72;98902.69;1726065;82;21298;-58
2021/12/14 10:46:01;;;;;;;24.77;14.87;;;;;;;-0.65;93.81;98905.50;1750020;82;21400;-64
2021/12/14 10:48:32;;;;;;;28.50;17.05;;;;;;;-0.68;93.91;98897.49;1752136;80;21102;-67
2021/12/14 10:51:02;;;;;;;21.27;14.30;;;;;;;-0.68;93.95;98896.17;1763004;80;20885;-62
2021/12/14 10:53:30;;;;;;;24.07;15.45;;;;;;;-0.68;93.93;98898.81;1765931;80;21081;-64
2021/12/14 10:56:01;;;;;;;25.68;16.40;;;;;;;-0.67;94.08;98907.02;1766703;80;21187;-64
2021/12/14 10:58:29;;;;;;;28.47;17.05;;;;;;;-0.64;94.11;98901.88;1763700;80;21507;-61
2021/12/14 11:01:04;;;;;;;32.25;18.37;;;;;;;-0.65;94.08;98898.42;1766803;80;21039;-64
2021/12/14 11:03:35;;;;;;;27.42;17.02;;;;;;;-0.66;94.03;98894.69;1764150;80;20979;-58
2021/12/14 11:06:09;;;;;;;27.60;16.02;;;;;;;-0.66;94.14;98896.81;1768030;80;21114;-62
2021/12/14 11:08:43;;;;;;;27.50;15.75;;;;;;;-0.67;94.20;98893.05;1805255;79;22004;-61
2021/12/14 11:11:13;;;;;;;24.07;15.15;;;;;;;-0.67;94.21;98904.89;1753207;79;21067;-64
2021/12/14 11:13:52;;;;;;;25.80;16.48;;;;;;;-0.68;94.26;98909.33;1803740;79;21078;-59
2021/12/14 11:16:34;;;;;;;35.15;17.17;;;;;;;-0.67;94.33;98898.31;1803631;79;21024;-65
2021/12/14 11:18:54;;;;;;;30.75;17.32;;;;;;;-0.64;94.28;98905.33;1803055;79;21234;-62
2021/12/14 11:21:22;;;;;;;32.15;16.65;;;;;;;-0.65;94.19;98903.69;1768103;80;22309;-65
2021/12/14 11:23:49;;;;;;;26.65;16.10;;;;;;;-0.67;94.18;98897.81;1762450;80;21101;-67
2021/12/14 11:26:24;;;;;;;26.52;16.65;;;;;;;-0.70;94.16;98899.52;1766705;80;21046;-61
2021/12/14 11:29:01;;;;;;;33.00;17.17;;;;;;;-0.73;94.24;98890.72;1768323;80;21570;-66
2021/12/14 11:31:37;;;;;;;27.25;17.02;;;;;;;-0.76;94.38;98895.05;1762272;80;21027;-56
2021/12/14 11:34:34;;;;;;;28.38;16.35;;;;;;;-0.74;94.41;98885.95;1768919;79;21086;-60
2021/12/14 11:37:07;;;;;;;28.73;17.48;;;;;;;-0.70;94.45;98885.04;1762235;80;20987;-64
2021/12/14 11:39:38;;;;;;;31.80;18.37;;;;;;;-0.67;94.45;98885.16;1749425;81;21102;-70
2021/12/14 11:42:22;;;;;;;31.25;19.37;;;;;;;-0.68;94.49;98881.70;1757303;80;21140;-61
2021/12/14 11:45:00;;;;;;;32.67;19.85;;;;;;;-0.68;94.45;98876.45;1771427;81;21079;-59
2021/12/14 11:50:30;;;;;;;39.40;20.68;;;;;;;-0.63;94.53;98877.98;1808781;78;21574;-60
2021/12/14 11:53:13;;;;;;;32.83;19.10;;;;;;;-0.61;94.44;98876.48;1808956;78;21046;-66
2021/12/14 11:56:09;;;;;;;29.55;17.45;;;;;;;-0.65;94.32;98877.38;1801287;79;21051;-69
2021/12/14 11:58:43;;;;;;;31.97;18.77;;;;;;;-0.71;94.32;98871.59;1802033;78;21282;-63
2021/12/14 12:01:18;;;;;;;36.30;20.27;;;;;;;-0.70;94.57;98867.94;1807786;78;21090;-66
2021/12/14 12:04:07;;;;;;;32.63;19.57;;;;;;;-0.66;94.53;98865.25;1785719;79;21003;-66
2021/12/14 12:09:41;;;;;;;37.17;19.32;;;;;;;-0.71;94.48;98867.66;1789166;78;21023;-55
2021/12/14 12:12:16;;;;;;;40.15;19.82;;;;;;;-0.70;94.48;98871.89;1772245;78;21101;-64
2021/12/14 12:14:59;;;;;;;32.07;19.37;;;;;;;-0.72;94.52;98873.91;1805225;78;21122;-59
2021/12/14 12:17:42;;;;;;;31.85;19.27;;;;;;;-0.71;94.56;98870.28;1792193;78;21544;-57
2021/12/14 12:20:47;;;;;;;30.82;19.57;;;;;;;-0.72;94.53;98873.41;1816529;78;20957;-60
2021/12/14 12:23:19;;;;;;;32.60;19.07;;;;;;;-0.68;94.62;98875.66;1810934;78;21023;-57
2021/12/14 12:25:58;;;;;;;33.05;19.07;;;;;;;-0.65;94.56;98872.61;1809256;79;20971;-66
2021/12/14 12:28:27;;;;;;;29.23;17.45;;;;;;;-0.65;94.53;98873.92;1802643;78;21729;-59
2021/12/14 12:31:14;;;;;;;32.90;18.23;;;;;;;-0.67;94.47;98875.95;1810928;78;21093;-59
2021/12/14 12:33:52;;;;;;;31.70;19.50;;;;;;;-0.62;94.53;98873.54;1802197;79;21148;-61
2021/12/14 12:36:28;;;;;;;37.58;21.50;;;;;;;-0.62;94.46;98863.02;1810943;78;20916;-64
2021/12/14 12:39:08;;;;;;;35.85;20.97;;;;;;;-0.65;94.39;98866.84;1808472;78;21079;-66
2021/12/14 12:41:46;;;;;;;37.65;22.10;;;;;;;-0.67;94.31;98864.11;1803018;78;21245;-61
2021/12/14 12:44:38;;;;;;;34.65;20.57;;;;;;;-0.70;94.31;98864.81;1811433;78;21009;-63
2021/12/14 12:47:09;;;;;;;31.17;19.80;;;;;;;-0.73;94.27;98857.84;1808064;78;20933;-66
2021/12/14 12:49:45;;;;;;;31.20;20.55;;;;;;;-0.76;94.38;98859.53;1801572;78;21009;-59
2021/12/14 12:52:29;;;;;;;32.00;19.42;;;;;;;-0.76;94.31;98862.16;1808686;78;21096;-62
2021/12/14 12:55:17;;;;;;;31.62;19.75;;;;;;;-0.77;94.26;98857.90;1810549;78;21106;-65
2021/12/14 12:57:58;;;;;;;31.37;19.73;;;;;;;-0.80;94.16;98861.73;1810200;78;20901;-62
2021/12/14 13:00:36;;;;;;;31.57;18.40;;;;;;;-0.80;93.95;98855.69;1804023;78;21010;-66
2021/12/14 13:03:16;;;;;;;26.85;17.87;;;;;;;-0.83;93.81;98860.02;1810825;78;21399;-61
2021/12/14 13:05:55;;;;;;;25.15;16.48;;;;;;;-0.89;93.78;98852.89;1813934;78;21471;-61
2021/12/14 13:08:37;;;;;;;25.10;17.48;;;;;;;-0.93;93.61;98859.55;1806309;78;21067;-66
2021/12/14 13:11:19;;;;;;;26.52;17.07;;;;;;;-0.91;93.60;98862.30;1801411;78;21447;-70
2021/12/14 13:13:57;;;;;;;26.95;17.25;;;;;;;-0.89;93.50;98866.04;1808269;78;20970;-62
2021/12/14 13:16:33;;;;;;;27.82;18.15;;;;;;;-0.89;93.39;98867.36;1806385;78;21091;-61
2021/12/14 13:19:13;;;;;;;29.48;18.75;;;;;;;-0.88;93.09;98866.36;1806981;78;21542;-64
2021/12/14 13:21:57;;;;;;;30.80;20.40;;;;;;;-0.88;93.00;98874.25;1800126;78;21545;-65
2021/12/14 13:24:34;;;;;;;27.45;18.80;;;;;;;-0.93;92.93;98880.59;1796658;79;21079;-59
2021/12/14 13:27:07;;;;;;;27.80;18.95;;;;;;;-0.96;92.92;98882.30;1798059;79;21039;-60
2021/12/14 13:29:56;;;;;;;34.40;20.57;;;;;;;-0.99;92.87;98887.97;1804767;79;21038;-64
2021/12/14 13:32:35;;;;;;;31.25;19.90;;;;;;;-1.01;92.92;98887.32;1784064;79;20886;-60
2021/12/14 13:35:19;;;;;;;29.42;18.12;;;;;;;-1.03;92.87;98895.42;1791092;79;21616;-63
2021/12/14 13:37:52;;;;;;;29.27;18.75;;;;;;;-1.09;92.92;98898.02;1797895;79;21468;-60
2021/12/14 13:40:24;;;;;;;26.97;18.30;;;;;;;-1.18;92.88;98891.30;1795483;79;20941;-63
2021/12/14 13:43:21;;;;;;;27.10;16.57;;;;;;;-1.21;93.04;98899.56;1799891;79;21075;-62
2021/12/14 13:45:56;;;;;;;;;;;;;;;-1.23;93.06;98897.63;1795342;79;21080;-63
2021/12/14 13:48:30;;;;;;;26.62;16.80;;;;;;;-1.22;93.20;98904.50;1801587;79;21124;-59
2021/12/14 13:51:04;;;;;;;22.95;16.23;;;;;;;-1.23;93.20;98906.83;1793708;79;21062;-57
2021/12/14 13:53:33;;;;;;;24.80;16.97;;;;;;;-1.22;93.15;98905.31;1796507;79;21494;-61
2021/12/14 13:56:09;;;;;;;28.07;17.98;;;;;;;-1.17;93.12;98906.05;1792770;79;21414;-66
2021/12/14 13:58:38;;;;;;;27.50;16.62;;;;;;;-1.17;93.03;98915.25;1787053;79;20981;-59
2021/12/14 14:01:12;;;;;;;25.52;17.50;;;;;;;-1.16;93.00;98910.31;1790312;79;21132;-62
2021/12/14 14:03:43;;;;;;;22.82;16.10;;;;;;;-1.14;92.96;98910.92;1796035;78;20998;-63
2021/12/14 14:06:13;;;;;;;25.48;16.50;;;;;;;-1.16;92.95;98906.38;1796940;79;21077;-61
2021/12/14 14:08:44;;;;;;;26.75;17.30;;;;;;;-1.19;92.93;98902.80;1788842;79;21076;-58
2021/12/14 14:11:32;;;;;;;26.62;17.37;;;;;;;-1.25;92.98;98910.98;1800490;79;21073;-62
2021/12/14 14:14:06;;;;;;;25.95;16.95;;;;;;;-1.24;93.12;98913.08;1798579;79;21505;-62
2021/12/14 14:48:52;;;;;;;33.92;19.57;;;;;;;-1.65;94.00;98923.52;1871570;76;28000;-61
2021/12/14 14:51:53;;;;;;;29.63;18.52;;;;;;;-1.76;94.23;98926.14;1827968;78;20884;-64
2021/12/14 14:54:41;;;;;;;26.50;17.10;;;;;;;-1.77;94.39;98929.78;1827841;78;21661;-63
2021/12/14 14:57:15;;;;;;;26.52;17.80;;;;;;;-1.76;94.65;98931.89;1827732;78;21375;-61
2021/12/14 15:00:03;;;;;;;28.13;16.87;;;;;;;-1.72;94.83;98931.32;1827908;78;20864;-63
2021/12/14 15:02:38;;;;;;;;;;;;;;;-1.66;94.91;98926.64;1830466;78;21373;-60
2021/12/14 15:05:09;;;;;;;25.77;17.95;;;;;;;-1.59;94.93;98931.45;1827876;78;20072;-62
2021/12/14 15:08:06;;;;;;;29.85;18.52;;;;;;;-1.53;95.12;98929.36;1827814;78;21080;-63
2021/12/14 15:11:01;;;;;;;27.40;17.42;;;;;;;-1.44;94.99;98933.47;1827701;78;20907;-62
2021/12/14 15:13:48;;;;;;;26.80;17.35;;;;;;;-1.42;94.87;98934.11;1826592;78;21421;-60
2021/12/14 15:16:26;;;;;;;28.10;16.97;;;;;;;-1.38;94.96;98937.16;1827697;78;20873;-61
2021/12/14 15:19:08;;;;;;;24.52;16.05;;;;;;;-1.36;94.99;98937.77;1827763;78;20880;-61
2021/12/14 15:21:43;;;;;;;25.97;17.05;;;;;;;-1.32;94.88;98933.78;1827794;78;21265;-61
2021/12/14 15:24:36;;;;;;;25.95;17.73;;;;;;;-1.30;94.78;98929.14;1828056;78;20873;-63
2021/12/14 15:27:14;;;;;;;31.93;18.25;;;;;;;-1.33;94.78;98931.33;1826304;78;20868;-61
2021/12/14 15:30:14;;;;;;;25.62;17.25;;;;;;;-1.34;94.81;98931.03;1826183;78;20852;-61
2021/12/14 15:32:52;;;;;;;30.20;17.55;;;;;;;-1.34;94.79;98933.13;1827528;78;20907;-60
2021/12/14 15:35:24;;;;;;;30.62;18.45;;;;;;;-1.34;94.76;98927.09;1827790;78;21108;-63
2021/12/14 15:38:02;;;;;;;23.80;16.70;;;;;;;-1.35;94.77;98927.59;1822415;78;20920;-63
2021/12/14 15:40:37;;;;;;;25.00;15.93;;;;;;;-1.34;94.78;98924.46;1827800;78;20947;-63
2021/12/14 15:43:07;;;;;;;;;;;;;;;-1.34;94.74;98918.67;1830621;78;21303;-63
2021/12/14 15:45:58;;;;;;;24.00;16.20;;;;;;;-1.33;94.71;98923.44;1827963;78;20075;-60
2021/12/14 15:48:39;;;;;;;23.45;15.85;;;;;;;-1.33;94.76;98917.69;1819172;78;21621;-61
2021/12/14 15:51:19;;;;;;;27.52;16.67;;;;;;;-1.31;94.67;98918.30;1816475;78;20845;-61
2021/12/14 15:54:04;;;;;;;28.20;17.60;;;;;;;-1.29;94.44;98922.05;1816607;79;20872;-61
2021/12/14 15:56:54;;;;;;;24.00;16.25;;;;;;;-1.24;94.42;98916.53;1791384;79;20963;-63
2021/12/14 15:59:24;;;;;;;23.50;14.63;;;;;;;-1.24;94.25;98909.95;1783237;79;21472;-62
2021/12/14 16:01:58;;;;;;;20.80;14.83;;;;;;;-1.27;94.00;98912.96;1784036;79;21894;-62
2021/12/14 16:04:36;;;;;;;20.87;13.83;;;;;;;-1.30;93.91;98913.38;1783949;80;20900;-61
2021/12/14 16:07:03;;;;;;;23.20;14.40;;;;;;;-1.30;93.78;98908.61;1797358;79;20837;-63
2021/12/14 16:09:31;;;;;;;20.12;14.28;;;;;;;-1.31;93.80;98909.59;1785785;79;20884;-59
2021/12/14 16:15:06;;;;;;;19.52;13.93;;;;;;;-1.31;93.62;98914.36;1784187;80;21502;-63
2021/12/14 16:17:25;;;;;;;23.90;16.05;;;;;;;-1.30;93.52;98917.31;1783805;79;20865;-61
2021/12/14 16:19:53;;;;;;;24.52;15.65;;;;;;;-1.30;93.50;98921.75;1789334;77;20904;-60
2021/12/14 16:22:28;;;;;;;26.77;16.73;;;;;;;-1.28;93.42;98923.19;1815812;79;20908;-62
2021/12/14 16:25:18;;;;;;;24.60;16.75;;;;;;;-1.26;93.26;98915.09;1814291;79;20833;-61
2021/12/14 16:27:50;;;;;;;25.08;16.55;;;;;;;-1.28;93.29;98924.99;1816034;78;21670;-58
2021/12/14 16:30:34;;;;;;;27.82;16.52;;;;;;;-1.27;93.31;98931.89;1791881;77;20948;-60
2021/12/14 16:33:27;;;;;;;24.87;16.52;;;;;;;-1.28;93.31;98932.88;1815272;79;20909;-60
2021/12/14 16:36:10;;;;;;;27.85;17.17;;;;;;;-1.22;93.45;98924.21;1802197;78;20856;-61
2021/12/14 16:38:49;;;;;;;26.85;17.37;;;;;;;-1.11;93.27;98931.59;1784059;80;20975;-59
2021/12/14 16:41:23;;;;;;;23.80;16.35;;;;;;;-1.12;92.92;98933.39;1784227;80;21084;-59
2021/12/14 16:44:09;;;;;;;24.98;17.37;;;;;;;-1.11;92.87;98934.22;1783044;79;20920;-60
2021/12/14 16:46:40;;;;;;;27.20;17.45;;;;;;;-1.12;92.83;98936.52;1783436;79;20888;-61
2021/12/14 16:49:11;;;;;;;25.62;16.48;;;;;;;-1.14;92.74;98934.59;1783659;80;20927;-58
2021/12/14 16:51:38;;;;;;;26.50;16.57;;;;;;;-1.19;92.64;98931.72;1784188;79;21003;-59
